Time;durP1;ratioP1;P1;durP2;ratioP2;P2;SDS_P1;SDS_P2;PMS_P1;PMS_P2;Temp;Humidity;BMP_temperature;BMP_pressure;BME280_temperature;BME280_humidity;BME280_pressure;Samples;Min_cycle;Max_cycle;Signal;HPM_P1;HPM_P2
2024/04/19 00:01:58;;;;;;;6.00;2.50;;;10.00;66.90;;;;;;11068393;26;20250;-62
2024/04/19 00:07:03;;;;;;;5.13;2.27;;;10.00;66.30;;;;;;11071294;26;20361;-63
2024/04/19 00:12:09;;;;;;;3.83;1.70;;;10.10;66.10;;;;;;11071032;26;22661;-62
2024/04/19 00:17:17;;;;;;;4.43;2.10;;;10.10;66.70;;;;;;11070883;26;20356;-62
2024/04/19 00:22:22;;;;;;;4.93;2.10;;;10.00;67.00;;;;;;11072047;26;20314;-61
2024/04/19 00:27:28;;;;;;;3.37;1.93;;;10.00;66.90;;;;;;11062897;26;20254;-63
2024/04/19 00:32:36;;;;;;;4.20;2.17;;;10.00;68.20;;;;;;11064681;26;20245;-62
2024/04/19 00:37:41;;;;;;;4.73;2.30;;;9.90;71.50;;;;;;11063948;26;20254;-63
2024/04/19 00:42:46;;;;;;;3.57;2.00;;;9.80;70.30;;;;;;11065522;26;20241;-62
2024/04/19 00:47:55;;;;;;;4.13;2.47;;;9.70;70.40;;;;;;11060782;26;20324;-62
2024/04/19 00:53:00;;;;;;;4.23;2.07;;;9.70;70.40;;;;;;11065982;26;20332;-62
2024/04/19 00:58:07;;;;;;;5.60;2.37;;;9.70;71.20;;;;;;11067429;26;20249;-61
2024/04/19 01:03:15;;;;;;;4.03;2.10;;;9.60;70.80;;;;;;11071780;26;20307;-62
2024/04/19 01:08:20;;;;;;;4.67;2.40;;;9.50;72.30;;;;;;11074968;26;20253;-62
2024/04/19 01:13:26;;;;;;;5.90;3.00;;;9.40;73.10;;;;;;11076578;26;20248;-61
2024/04/19 01:18:34;;;;;;;5.07;2.90;;;9.30;73.80;;;;;;11072157;26;20688;-61
2024/04/19 01:23:40;;;;;;;4.83;3.03;;;9.20;74.30;;;;;;11072648;26;20249;-62
2024/04/19 01:28:48;;;;;;;4.43;3.03;;;9.20;76.50;;;;;;11071853;26;20335;-62
2024/04/19 01:33:53;;;;;;;5.43;3.03;;;9.20;75.30;;;;;;11069488;26;20258;-63
2024/04/19 01:38:59;;;;;;;5.40;2.60;;;9.10;77.10;;;;;;11075666;26;20241;-63
2024/04/19 01:44:07;;;;;;;3.50;2.33;;;9.00;76.30;;;;;;11073262;26;20343;-63
2024/04/19 01:49:13;;;;;;;5.03;3.10;;;8.90;76.60;;;;;;11071869;26;20250;-64
2024/04/19 01:54:18;;;;;;;4.30;3.20;;;8.90;78.50;;;;;;11069827;26;21851;-63
2024/04/19 01:59:28;;;;;;;4.87;3.07;;;8.90;79.10;;;;;;11063130;26;20330;-63
2024/04/19 02:04:33;;;;;;;4.97;3.17;;;8.90;78.20;;;;;;11072111;26;21957;-62
2024/04/19 02:09:39;;;;;;;4.23;2.90;;;8.90;77.90;;;;;;11070003;26;20266;-62
2024/04/19 02:14:47;;;;;;;4.60;2.50;;;9.00;80.00;;;;;;11069764;26;20391;-61
2024/04/19 02:19:53;;;;;;;5.60;3.10;;;9.00;80.40;;;;;;11071492;26;21806;-62
2024/04/19 02:24:58;;;;;;;4.70;2.87;;;8.90;80.50;;;;;;11068517;26;20347;-62
2024/04/19 02:35:28;;;;;;;5.73;3.60;;;8.80;81.00;;;;;;11073146;26;20749;-63
2024/04/19 02:40:33;;;;;;;9.17;4.57;;;8.80;82.40;;;;;;11065517;26;22441;-63
2024/04/19 02:45:44;;;;;;;4.37;3.60;;;8.80;83.20;;;;;;11072421;26;20257;-62
2024/04/19 02:51:02;;;;;;;6.27;3.93;;;8.80;83.10;;;;;;11064550;26;20306;-63
2024/04/19 02:56:08;;;;;;;4.50;3.97;;;8.80;82.70;;;;;;11068463;26;20358;-63
2024/04/19 03:01:16;;;;;;;8.77;5.43;;;8.80;84.10;;;;;;11065650;26;20343;-62
2024/04/19 03:06:21;;;;;;;6.17;4.50;;;8.70;85.30;;;;;;11065386;26;20258;-63
2024/04/19 03:11:28;;;;;;;8.70;5.23;;;8.70;83.60;;;;;;11070208;26;22658;-62
2024/04/19 03:16:36;;;;;;;7.40;4.90;;;8.70;85.00;;;;;;11066019;26;20257;-62
2024/04/19 03:21:41;;;;;;;6.23;5.43;;;8.70;85.40;;;;;;11062967;26;20350;-62
2024/04/19 03:26:47;;;;;;;5.80;5.20;;;8.60;85.90;;;;;;11063710;26;20797;-62
2024/04/19 03:31:55;;;;;;;7.70;5.73;;;8.70;85.70;;;;;;11060324;26;20247;-63
2024/04/19 03:37:00;;;;;;;7.30;5.43;;;8.60;84.90;;;;;;11062939;26;20245;-63
2024/04/19 03:42:10;;;;;;;7.37;6.10;;;8.60;85.70;;;;;;11061587;26;22171;-62
2024/04/19 03:47:18;;;;;;;14.23;8.23;;;8.60;87.10;;;;;;11083741;26;20250;-63
2024/04/19 03:52:24;;;;;;;7.37;5.93;;;8.70;86.50;;;;;;11082243;26;20319;-63
2024/04/19 03:57:31;;;;;;;9.13;6.87;;;8.70;87.20;;;;;;11081834;26;20322;-64
2024/04/19 04:02:39;;;;;;;7.30;6.37;;;8.70;86.60;;;;;;11084759;26;22597;-64
2024/04/19 04:07:44;;;;;;;8.03;6.30;;;8.70;87.20;;;;;;11084728;26;20246;-60
2024/04/19 04:12:50;;;;;;;7.10;6.40;;;8.60;88.20;;;;;;11063756;26;20244;-61
2024/04/19 04:18:01;;;;;;;8.10;7.40;;;8.60;88.90;;;;;;11077485;26;20506;-64
2024/04/19 04:23:08;;;;;;;6.53;5.93;;;8.80;89.40;;;;;;11088648;26;20300;-64
2024/04/19 04:28:14;;;;;;;7.83;5.47;;;8.80;89.00;;;;;;11087198;26;20257;-62
2024/04/19 04:33:22;;;;;;;4.83;4.10;;;8.80;88.70;;;;;;11089441;26;20250;-63
2024/04/19 04:38:27;;;;;;;5.20;4.30;;;8.70;89.70;;;;;;11100587;26;20249;-63
2024/04/19 04:43:33;;;;;;;5.50;4.60;;;8.70;89.50;;;;;;11096132;26;20257;-62
2024/04/19 04:48:41;;;;;;;5.70;4.27;;;8.60;88.80;;;;;;11089376;26;20250;-63
2024/04/19 04:53:46;;;;;;;4.47;4.03;;;8.50;88.80;;;;;;11096763;26;20308;-62
2024/04/19 04:58:51;;;;;;;4.40;3.73;;;8.50;90.10;;;;;;11095967;26;20241;-65
2024/04/19 05:03:59;;;;;;;5.53;4.00;;;8.50;90.00;;;;;;11085689;26;20250;-62
2024/04/19 05:09:05;;;;;;;4.53;3.80;;;8.50;90.00;;;;;;11090819;26;20421;-63
2024/04/19 05:14:10;;;;;;;5.53;4.93;;;8.50;89.40;;;;;;11088734;21;20381;-64
2024/04/19 05:19:18;;;;;;;4.40;3.37;;;8.50;90.20;;;;;;11068504;26;20245;-64
2024/04/19 05:24:24;;;;;;;5.90;4.83;;;8.50;90.20;;;;;;11067346;26;20256;-66
2024/04/19 05:29:29;;;;;;;4.80;4.07;;;8.50;90.60;;;;;;11057879;26;20362;-64
2024/04/19 05:34:38;;;;;;;6.30;4.57;;;8.50;90.60;;;;;;11053741;26;22081;-64
2024/04/19 05:39:43;;;;;;;9.50;5.70;;;8.60;90.90;;;;;;11060028;26;20254;-65
2024/04/19 05:44:49;;;;;;;4.90;3.90;;;8.60;91.10;;;;;;11055548;26;20318;-65
2024/04/19 05:49:57;;;;;;;4.60;3.63;;;8.70;91.90;;;;;;11080698;26;22310;-64
2024/04/19 05:55:02;;;;;;;4.90;3.77;;;8.70;92.10;;;;;;11082045;26;20304;-63
2024/04/19 06:00:09;;;;;;;8.90;5.10;;;8.80;92.50;;;;;;11051490;26;20719;-64
2024/04/19 06:05:17;;;;;;;4.53;3.80;;;8.70;92.30;;;;;;11058499;26;20350;-62
2024/04/19 06:10:23;;;;;;;4.50;4.10;;;8.80;93.40;;;;;;11053855;26;21082;-62
2024/04/19 06:15:28;;;;;;;3.97;3.57;;;8.80;93.00;;;;;;11060022;26;20247;-63
2024/04/19 06:20:39;;;;;;;4.30;3.33;;;8.90;92.90;;;;;;11054250;26;20315;-62
2024/04/19 06:25:45;;;;;;;6.50;4.57;;;8.80;93.00;;;;;;11053927;26;20348;-62
2024/04/19 06:30:50;;;;;;;5.00;4.50;;;8.80;93.00;;;;;;11045910;26;20250;-63
2024/04/19 06:36:00;;;;;;;5.23;4.50;;;8.80;93.30;;;;;;11048135;26;20241;-61
2024/04/19 06:41:06;;;;;;;5.20;4.70;;;8.80;93.00;;;;;;11053549;26;20359;-62
2024/04/19 06:46:11;;;;;;;6.80;6.10;;;8.90;93.60;;;;;;11047489;26;20335;-62
2024/04/19 06:51:19;;;;;;;5.97;5.33;;;8.90;94.10;;;;;;11054657;26;22343;-60
2024/04/19 06:56:24;;;;;;;7.83;6.87;;;9.00;93.70;;;;;;11056174;26;20241;-62
2024/04/19 07:01:32;;;;;;;7.37;6.77;;;9.00;93.30;;;;;;11056387;26;20246;-61
2024/04/19 07:06:40;;;;;;;6.93;6.33;;;8.90;93.40;;;;;;11061866;26;20246;-61
2024/04/19 07:11:49;;;;;;;7.90;7.20;;;9.00;93.90;;;;;;11059058;26;20245;-61
2024/04/19 07:16:54;;;;;;;7.87;7.17;;;9.00;93.70;;;;;;11058808;26;20258;-60
2024/04/19 07:22:02;;;;;;;8.17;7.37;;;9.00;93.50;;;;;;11058248;26;20318;-60
2024/04/19 07:27:08;;;;;;;14.60;9.57;;;9.00;93.30;;;;;;11055578;26;20246;-60
2024/04/19 07:32:13;;;;;;;13.87;10.77;;;9.00;93.70;;;;;;11057525;26;20899;-61
2024/04/19 07:37:21;;;;;;;8.40;7.47;;;9.00;93.90;;;;;;11054207;26;20254;-61
2024/04/19 07:42:29;;;;;;;12.97;10.60;;;9.10;93.70;;;;;;11053418;26;20246;-62
2024/04/19 07:47:34;;;;;;;8.73;8.03;;;9.10;93.90;;;;;;11055477;26;20730;-60
2024/04/19 07:52:42;;;;;;;8.90;8.13;;;9.10;94.30;;;;;;11060881;26;20291;-61
2024/04/19 07:57:49;;;;;;;9.00;8.20;;;9.10;94.70;;;;;;11056605;26;20360;-62
2024/04/19 08:02:54;;;;;;;9.90;8.75;;;9.20;94.30;;;;;;11059764;26;20254;-63
2024/04/19 08:08:02;;;;;;;10.10;9.10;;;9.30;94.60;;;;;;11054450;26;20245;-61
2024/04/19 08:13:08;;;;;;;9.85;8.90;;;9.30;94.50;;;;;;11055810;26;21951;-61
2024/04/19 08:18:13;;;;;;;9.75;8.85;;;9.30;94.20;;;;;;11048426;26;20360;-61
2024/04/19 08:23:25;;;;;;;14.43;9.93;;;9.30;94.40;;;;;;11047654;26;20371;-60
2024/04/19 08:28:30;;;;;;;11.20;10.10;;;9.40;94.50;;;;;;11055667;26;20249;-60
2024/04/19 08:33:35;;;;;;;14.67;12.43;;;9.40;95.00;;;;;;11056666;26;23947;-60
2024/04/19 08:38:44;;;;;;;15.23;13.83;;;9.40;94.70;;;;;;11054740;26;20826;-59
2024/04/19 08:43:52;;;;;;;16.48;14.77;;;9.50;94.70;;;;;;11053513;26;20342;-60
2024/04/19 08:48:59;;;;;;;24.23;17.73;;;9.50;94.50;;;;;;11055488;26;20333;-60
2024/04/19 08:54:08;;;;;;;21.25;18.08;;;9.70;94.60;;;;;;11062433;26;22091;-60
2024/04/19 08:59:13;;;;;;;16.55;14.85;;;9.80;94.60;;;;;;11055677;26;20334;-60
2024/04/19 09:04:19;;;;;;;16.00;14.27;;;9.90;94.20;;;;;;11069203;26;20248;-63
2024/04/19 09:09:28;;;;;;;21.75;15.82;;;10.00;94.30;;;;;;11057709;26;20250;-61
2024/04/19 09:14:34;;;;;;;16.58;14.77;;;10.10;93.90;;;;;;11052874;26;20793;-61
2024/04/19 09:19:39;;;;;;;16.58;14.95;;;10.10;94.10;;;;;;11050598;26;20268;-61
2024/04/19 09:24:52;;;;;;;13.15;11.85;;;10.20;94.20;;;;;;11061836;26;22322;-62
2024/04/19 09:29:59;;;;;;;9.60;8.70;;;10.30;94.40;;;;;;11058954;26;20250;-61
2024/04/19 09:35:09;;;;;;;5.57;4.30;;;10.30;94.40;;;;;;11060118;26;20338;-61
2024/04/19 09:40:17;;;;;;;5.30;2.17;;;10.20;94.50;;;;;;11061911;26;20279;-61
2024/04/19 09:45:23;;;;;;;2.15;1.23;;;10.10;94.30;;;;;;11064320;26;20372;-61
2024/04/19 09:50:33;;;;;;;2.63;1.20;;;10.00;94.30;;;;;;11063667;26;20731;-61
2024/04/19 09:55:53;;;;;;;10.73;3.10;;;9.90;94.90;;;;;;11062959;26;20320;-62
2024/04/19 10:01:01;;;;;;;2.50;1.60;;;9.90;94.50;;;;;;11062009;26;20366;-62
2024/04/19 10:06:07;;;;;;;1.80;1.10;;;9.90;94.70;;;;;;11066767;26;20241;-61
2024/04/19 10:11:15;;;;;;;2.53;1.90;;;10.00;94.50;;;;;;11059752;26;20967;-59
2024/04/19 10:16:21;;;;;;;2.50;2.05;;;10.20;94.00;;;;;;11060287;26;20242;-60
2024/04/19 10:21:27;;;;;;;5.07;2.88;;;10.30;94.50;;;;;;11061019;26;20250;-60
2024/04/19 10:26:35;;;;;;;7.75;3.97;;;10.40;94.20;;;;;;11056187;26;20246;-60
2024/04/19 10:31:45;;;;;;;5.07;3.70;;;10.50;94.30;;;;;;11045499;26;22770;-60
2024/04/19 10:36:53;;;;;;;6.13;4.57;;;10.50;94.60;;;;;;11058448;26;20258;-61
2024/04/19 10:42:01;;;;;;;6.47;4.80;;;10.40;94.60;;;;;;11058635;26;20371;-58
2024/04/19 10:47:08;;;;;;;5.90;3.45;;;10.50;94.30;;;;;;11060968;26;20242;-59
2024/04/19 10:52:13;;;;;;;3.15;2.40;;;10.50;94.40;;;;;;11057987;26;21267;-61
2024/04/19 10:57:21;;;;;;;4.38;2.35;;;10.50;94.50;;;;;;11064312;26;20331;-61
2024/04/19 11:02:29;;;;;;;3.15;1.38;;;10.50;94.10;;;;;;11121173;26;20230;-62
2024/04/19 11:07:36;;;;;;;2.70;0.63;;;10.50;94.90;;;;;;11168492;26;20268;-63
2024/04/19 11:12:44;;;;;;;2.72;0.82;;;10.40;95.00;;;;;;11166711;21;20593;-66
2024/04/19 11:17:49;;;;;;;3.13;0.90;;;10.40;94.10;;;;;;11062856;26;20238;-65
2024/04/19 11:22:55;;;;;;;2.57;1.03;;;10.50;94.00;;;;;;11072575;26;20234;-66
2024/04/19 11:28:03;;;;;;;2.88;1.45;;;10.70;94.10;;;;;;11075213;26;23308;-66
2024/04/19 11:33:09;;;;;;;2.80;1.00;;;11.00;93.90;;;;;;11071064;26;20349;-66
2024/04/19 11:38:16;;;;;;;1.67;1.10;;;11.40;93.80;;;;;;11076852;26;20234;-67
2024/04/19 11:43:24;;;;;;;1.58;0.80;;;11.70;93.00;;;;;;11067816;26;20359;-71
2024/04/19 11:48:30;;;;;;;1.52;1.10;;;11.90;92.40;;;;;;11064647;26;20237;-70
2024/04/19 11:53:36;;;;;;;3.33;1.65;;;12.00;92.50;;;;;;11065212;26;20824;-71
2024/04/19 11:58:49;;;;;;;2.97;2.08;;;12.10;92.30;;;;;;11061285;26;20238;-69
2024/04/19 12:03:54;;;;;;;3.22;2.17;;;12.10;92.40;;;;;;11063468;26;20339;-71
2024/04/19 12:09:00;;;;;;;3.55;2.40;;;12.00;92.50;;;;;;11063610;26;20246;-69
2024/04/19 12:14:08;;;;;;;3.25;2.40;;;11.80;93.00;;;;;;11065162;26;21135;-68
2024/04/19 12:19:33;;;;;;;4.20;3.80;;;11.60;93.40;;;;;;11063610;26;22595;-68
2024/04/19 12:24:39;;;;;;;4.68;3.45;;;11.50;93.70;;;;;;11062320;26;20335;-68
2024/04/19 12:29:49;;;;;;;2.17;1.40;;;11.80;93.70;;;;;;11058401;26;20233;-69
2024/04/19 12:34:54;;;;;;;8.88;3.00;;;12.00;93.60;;;;;;11060718;26;20327;-69
2024/04/19 12:40:00;;;;;;;0.60;0.30;;;11.70;93.60;;;;;;11058475;26;20330;-70
2024/04/19 12:45:09;;;;;;;3.65;1.08;;;11.40;92.90;;;;;;11059848;26;20237;-70
2024/04/19 12:50:14;;;;;;;0.80;0.40;;;11.00;92.50;;;;;;11061174;26;20238;-70
2024/04/19 12:55:19;;;;;;;1.00;0.35;;;10.80;93.60;;;;;;11056063;26;20360;-67
2024/04/19 13:00:29;;;;;;;0.82;0.40;;;10.70;93.50;;;;;;11062087;26;20233;-71
2024/04/19 13:05:36;;;;;;;3.85;0.52;;;10.70;93.00;;;;;;11066236;26;20316;-70
2024/04/19 13:10:41;;;;;;;2.80;1.27;;;10.90;92.90;;;;;;11066539;26;20238;-69
2024/04/19 13:15:49;;;;;;;1.40;0.47;;;11.10;93.40;;;;;;11067467;26;20234;-72
2024/04/19 13:20:55;;;;;;;5.78;1.42;;;11.30;92.60;;;;;;11071450;26;20238;-72
2024/04/19 13:26:00;;;;;;;1.25;0.63;;;11.80;92.60;;;;;;11076075;26;20325;-71
2024/04/19 13:31:08;;;;;;;0.95;0.52;;;11.90;92.20;;;;;;11066158;26;21810;-69
2024/04/19 13:36:14;;;;;;;6.57;1.50;;;11.80;92.70;;;;;;11063060;26;20328;-71
2024/04/19 13:41:19;;;;;;;3.63;1.20;;;11.60;92.80;;;;;;11062477;26;20237;-70
2024/04/19 13:46:27;;;;;;;1.52;0.65;;;11.40;92.80;;;;;;11063968;26;20287;-67
2024/04/19 13:51:33;;;;;;;5.10;0.70;;;11.30;92.90;;;;;;11062619;26;22085;-69
2024/04/19 13:56:39;;;;;;;4.15;0.80;;;11.20;93.10;;;;;;11061957;26;20233;-71
2024/04/19 14:01:47;;;;;;;3.22;0.60;;;11.30;93.50;;;;;;11063127;26;21318;-67
2024/04/19 14:06:53;;;;;;;2.22;0.70;;;11.30;93.50;;;;;;11066659;26;20237;-71
2024/04/19 14:11:58;;;;;;;1.27;0.40;;;11.10;93.60;;;;;;11069943;26;20237;-69
2024/04/19 14:17:07;;;;;;;7.60;0.77;;;10.70;92.30;;;;;;11070027;26;20339;-70
2024/04/19 14:22:12;;;;;;;1.60;0.60;;;10.30;92.40;;;;;;11066649;26;20349;-67
2024/04/19 14:27:18;;;;;;;1.73;0.82;;;10.30;93.30;;;;;;11066362;26;20238;-70
2024/04/19 14:32:26;;;;;;;2.55;0.88;;;10.50;93.20;;;;;;11069573;26;20242;-70
2024/04/19 14:37:31;;;;;;;2.15;1.08;;;11.10;92.50;;;;;;11071430;26;20226;-69
2024/04/19 14:42:39;;;;;;;4.40;1.48;;;11.70;91.60;;;;;;11063214;26;20241;-72
2024/04/19 14:47:47;;;;;;;6.28;1.40;;;11.80;91.80;;;;;;11064775;26;22282;-72
2024/04/19 14:52:52;;;;;;;4.38;1.40;;;11.90;91.30;;;;;;11063481;26;20238;-70
2024/04/19 14:58:12;;;;;;;7.13;1.30;;;12.30;91.20;;;;;;11066947;26;20230;-70
2024/04/19 15:03:20;;;;;;;5.05;1.83;;;12.50;91.20;;;;;;11061464;26;20238;-69
2024/04/19 15:08:26;;;;;;;4.60;1.65;;;12.30;92.10;;;;;;11064737;26;20230;-71
2024/04/19 15:13:31;;;;;;;6.57;1.83;;;12.10;91.50;;;;;;11072320;26;20241;-73
2024/04/19 15:18:43;;;;;;;6.00;1.67;;;11.90;92.00;;;;;;11065615;26;20319;-74
2024/04/19 15:23:48;;;;;;;5.35;1.65;;;12.20;91.30;;;;;;11069305;26;20573;-68
2024/04/19 15:28:53;;;;;;;4.65;1.65;;;12.60;90.00;;;;;;11068242;26;21862;-68
2024/04/19 15:34:01;;;;;;;8.15;2.65;;;13.30;88.90;;;;;;11067192;26;20238;-68
2024/04/19 15:39:27;;;;;;;11.95;2.17;;;13.80;88.20;;;;;;11068409;26;22203;-63
2024/04/19 15:44:33;;;;;;;4.93;1.90;;;14.40;87.20;;;;;;11064862;26;20249;-66
2024/04/19 15:49:42;;;;;;;8.45;1.95;;;15.00;85.10;;;;;;11064486;26;20233;-66
2024/04/19 15:54:48;;;;;;;4.78;2.00;;;15.30;83.30;;;;;;11067534;26;20321;-69
2024/04/19 15:59:53;;;;;;;5.10;1.50;;;15.70;83.00;;;;;;11070355;26;20655;-68
2024/04/19 16:05:01;;;;;;;6.45;1.25;;;16.00;82.10;;;;;;11071359;26;20787;-64
2024/04/19 16:10:07;;;;;;;3.80;1.15;;;16.00;81.30;;;;;;11066345;26;20240;-67
2024/04/19 16:15:13;;;;;;;4.55;1.33;;;15.30;81.10;;;;;;11063263;26;21948;-67
2024/04/19 16:20:21;;;;;;;4.30;1.20;;;14.50;77.90;;;;;;11073071;26;20234;-65
2024/04/19 16:25:26;;;;;;;3.65;1.35;;;14.90;82.40;;;;;;11080287;26;20346;-67
2024/04/19 16:30:31;;;;;;;4.20;1.10;;;15.00;77.60;;;;;;11065102;26;20331;-66
2024/04/19 16:35:39;;;;;;;2.67;0.90;;;14.70;78.10;;;;;;11064998;26;20238;-69
2024/04/19 16:41:00;;;;;;;4.03;0.95;;;15.00;79.60;;;;;;11070813;26;20249;-68
2024/04/19 16:46:06;;;;;;;3.83;1.08;;;14.90;78.20;;;;;;11087782;26;20234;-68
2024/04/19 16:51:15;;;;;;;3.47;1.02;;;14.20;76.60;;;;;;11087506;26;20297;-67
2024/04/19 16:56:20;;;;;;;3.80;1.30;;;13.60;78.10;;;;;;11079113;26;20230;-66
2024/04/19 17:01:26;;;;;;;5.82;1.58;;;13.00;80.40;;;;;;11069402;26;20307;-70
2024/04/19 17:06:34;;;;;;;3.30;1.05;;;12.60;82.10;;;;;;11064351;26;20339;-65
2024/04/19 17:11:40;;;;;;;3.30;1.35;;;12.30;82.10;;;;;;11066037;26;20238;-66
2024/04/19 17:16:46;;;;;;;2.58;0.60;;;11.90;80.40;;;;;;11069336;26;20323;-68
2024/04/19 17:21:55;;;;;;;5.53;0.98;;;11.70;81.50;;;;;;11067436;26;20240;-68
2024/04/19 17:27:00;;;;;;;3.13;0.90;;;11.60;81.10;;;;;;11006562;26;20330;-71
2024/04/19 17:32:06;;;;;;;2.95;0.80;;;11.40;81.60;;;;;;11070199;26;22281;-66
2024/04/19 17:37:15;;;;;;;3.97;1.13;;;11.30;82.40;;;;;;11068272;26;20245;-67
2024/04/19 17:42:21;;;;;;;3.08;0.70;;;11.30;84.10;;;;;;11070809;26;20235;-69
2024/04/19 17:47:26;;;;;;;3.13;0.73;;;11.10;83.90;;;;;;11074434;26;20230;-65
2024/04/19 17:52:34;;;;;;;2.10;0.70;;;10.80;83.20;;;;;;11072193;26;20246;-69
2024/04/19 17:57:40;;;;;;;2.70;1.00;;;10.60;83.90;;;;;;11000646;26;20234;-68
2024/04/19 18:02:45;;;;;;;4.97;1.40;;;10.40;84.40;;;;;;10994426;26;20343;-68
2024/04/19 18:07:53;;;;;;;5.18;1.52;;;10.20;85.20;;;;;;11074820;26;20344;-70
2024/04/19 18:12:59;;;;;;;3.83;0.80;;;10.10;84.90;;;;;;11073557;26;20246;-67
2024/04/19 18:18:05;;;;;;;2.95;0.80;;;10.00;85.10;;;;;;11072489;26;20234;-65
2024/04/19 18:23:15;;;;;;;4.65;1.40;;;9.90;86.30;;;;;;11072482;26;20246;-66
2024/04/19 18:28:21;;;;;;;3.20;0.90;;;9.80;87.10;;;;;;11070500;26;21605;-65
2024/04/19 18:33:26;;;;;;;2.78;1.25;;;9.70;88.10;;;;;;11069671;26;20250;-66
2024/04/19 18:38:35;;;;;;;4.63;2.27;;;9.70;88.00;;;;;;11068854;26;20291;-67
2024/04/19 18:43:41;;;;;;;3.20;0.90;;;9.60;88.50;;;;;;11070517;26;20249;-66
2024/04/19 18:48:46;;;;;;;5.43;1.60;;;9.60;87.50;;;;;;11073484;26;20323;-67
2024/04/19 18:53:56;;;;;;;2.20;0.90;;;9.50;88.40;;;;;;11068033;26;20246;-67
2024/04/19 18:59:01;;;;;;;2.67;0.88;;;9.50;88.30;;;;;;11072173;26;20242;-65
2024/04/19 19:04:07;;;;;;;3.40;1.10;;;9.50;88.20;;;;;;11068949;26;20242;-68
2024/04/19 19:09:16;;;;;;;2.97;1.33;;;9.40;88.20;;;;;;11071229;26;20230;-69
2024/04/19 19:14:21;;;;;;;2.88;1.52;;;9.40;87.70;;;;;;11063471;26;20358;-68
2024/04/19 19:19:27;;;;;;;4.95;1.17;;;9.50;89.20;;;;;;11069459;26;20332;-67
2024/04/19 19:24:37;;;;;;;3.35;0.98;;;9.50;88.20;;;;;;11068769;26;20339;-68
2024/04/19 19:29:42;;;;;;;3.20;0.98;;;9.40;87.80;;;;;;11067185;26;20250;-66
2024/04/19 19:34:48;;;;;;;3.58;1.20;;;9.30;87.60;;;;;;11066776;26;20385;-68
2024/04/19 19:39:59;;;;;;;2.88;1.40;;;9.20;88.30;;;;;;11065634;26;20662;-69
2024/04/19 19:45:05;;;;;;;2.78;1.00;;;9.20;89.10;;;;;;11069346;26;20238;-65
2024/04/19 19:50:11;;;;;;;5.83;1.50;;;9.20;88.90;;;;;;11065634;26;20295;-67
2024/04/19 19:55:19;;;;;;;3.80;1.00;;;9.10;89.30;;;;;;11067687;26;20708;-68
2024/04/19 20:05:50;;;;;;;7.60;1.97;;;9.10;89.30;;;;;;11062768;26;20250;-65
2024/04/19 20:10:58;;;;;;;4.60;1.13;;;9.00;89.10;;;;;;11069249;26;20296;-67
2024/04/19 20:16:03;;;;;;;5.50;1.63;;;9.00;89.20;;;;;;11064901;26;20234;-65
2024/04/19 20:21:09;;;;;;;5.07;1.80;;;9.00;89.50;;;;;;11060972;26;20234;-66
2024/04/19 20:26:20;;;;;;;3.37;1.60;;;9.10;89.60;;;;;;11060510;26;20335;-67
2024/04/19 20:31:25;;;;;;;6.13;1.80;;;9.00;89.70;;;;;;11062785;26;20356;-69
2024/04/19 20:36:30;;;;;;;2.87;1.43;;;9.00;90.00;;;;;;11063979;26;20234;-66
2024/04/19 20:41:38;;;;;;;8.10;2.00;;;9.00;89.70;;;;;;11004990;26;20241;-66
2024/04/19 20:46:44;;;;;;;6.97;1.90;;;9.00;89.50;;;;;;11069214;26;20230;-67
2024/04/19 20:51:49;;;;;;;3.95;1.70;;;8.90;90.50;;;;;;10976846;26;20346;-65
2024/04/19 20:56:57;;;;;;;6.97;1.63;;;8.90;90.10;;;;;;11067754;26;20305;-68
2024/04/19 21:02:03;;;;;;;6.63;1.60;;;9.00;90.00;;;;;;11067959;26;20316;-67
2024/04/19 21:07:08;;;;;;;3.92;1.50;;;9.00;89.70;;;;;;11066903;26;20234;-67
2024/04/19 21:12:16;;;;;;;8.87;1.40;;;9.00;89.50;;;;;;11067817;26;20234;-69
2024/04/19 21:17:24;;;;;;;3.83;1.57;;;9.00;89.60;;;;;;11070369;26;20941;-67
2024/04/19 21:22:30;;;;;;;2.97;1.20;;;9.00;89.60;;;;;;11074817;26;20246;-66
2024/04/19 21:27:39;;;;;;;9.13;3.67;;;9.10;90.20;;;;;;11068596;26;20246;-69
2024/04/19 21:32:44;;;;;;;5.22;1.40;;;9.00;90.30;;;;;;11064696;26;20277;-66
2024/04/19 21:37:50;;;;;;;5.80;1.53;;;9.00;89.90;;;;;;11063534;26;20338;-69
2024/04/19 21:42:58;;;;;;;7.37;1.90;;;9.00;89.70;;;;;;11064973;26;20249;-65
2024/04/19 21:48:03;;;;;;;4.87;1.80;;;8.90;89.80;;;;;;11061276;26;20755;-64
2024/04/19 21:53:09;;;;;;;5.03;1.70;;;8.90;90.00;;;;;;11061699;26;20254;-68
2024/04/19 21:58:17;;;;;;;5.55;1.50;;;8.80;90.00;;;;;;11068543;26;20233;-65
2024/04/19 22:03:23;;;;;;;6.53;1.73;;;8.90;90.10;;;;;;11074276;26;22183;-66
2024/04/19 22:08:28;;;;;;;4.60;1.83;;;8.90;90.60;;;;;;11071915;26;20244;-69
2024/04/19 22:13:36;;;;;;;5.57;1.70;;;8.90;90.10;;;;;;11071021;26;20340;-65
2024/04/19 22:18:41;;;;;;;6.30;1.60;;;8.90;90.00;;;;;;11074550;26;20245;-65
2024/04/19 22:23:48;;;;;;;4.30;1.67;;;8.90;90.30;;;;;;11071404;26;20308;-67
2024/04/19 22:28:56;;;;;;;4.95;2.05;;;8.80;90.50;;;;;;11070442;26;20325;-67
2024/04/19 22:34:01;;;;;;;7.10;2.20;;;8.90;90.70;;;;;;11070893;26;20331;-67
2024/04/19 22:39:07;;;;;;;5.10;2.20;;;9.00;90.50;;;;;;11073169;26;20234;-65
2024/04/19 22:44:15;;;;;;;4.43;2.20;;;9.00;90.30;;;;;;11069855;26;20241;-68
2024/04/19 22:49:20;;;;;;;6.10;2.03;;;8.90;90.20;;;;;;11068903;26;20238;-68
2024/04/19 22:54:26;;;;;;;5.57;1.93;;;8.80;90.50;;;;;;11069969;26;20622;-68
2024/04/19 22:59:34;;;;;;;5.97;2.03;;;8.80;90.80;;;;;;11069000;26;20233;-67
2024/04/19 23:04:39;;;;;;;5.03;2.17;;;8.80;90.20;;;;;;11068455;26;20343;-68
2024/04/19 23:09:45;;;;;;;6.67;1.90;;;8.80;90.90;;;;;;11068974;26;20242;-67
2024/04/19 23:14:53;;;;;;;10.10;1.73;;;8.80;90.40;;;;;;11103016;21;20264;-60
2024/04/19 23:19:58;;;;;;;6.47;2.00;;;8.80;90.20;;;;;;11124057;26;20604;-60
2024/04/19 23:25:06;;;;;;;6.67;2.30;;;8.80;90.50;;;;;;11104418;26;20242;-61
2024/04/19 23:30:14;;;;;;;4.13;1.80;;;8.80;90.50;;;;;;11051812;26;20319;-61
2024/04/19 23:35:20;;;;;;;5.38;1.80;;;8.80;90.20;;;;;;11058737;26;20355;-61
2024/04/19 23:40:25;;;;;;;4.83;1.83;;;8.80;90.50;;;;;;11061297;26;20723;-61
2024/04/19 23:45:33;;;;;;;5.30;1.97;;;8.80;90.10;;;;;;11046617;26;20348;-60
2024/04/19 23:50:39;;;;;;;6.97;2.07;;;8.80;90.20;;;;;;11050839;26;20318;-60
2024/04/19 23:55:44;;;;;;;7.77;2.00;;;8.80;90.20;;;;;;11060240;26;20245;-60
